Time;durP1;ratioP1;P1;durP2;ratioP2;P2;SDS_P1;SDS_P2;PMS_P1;PMS_P2;Temp;Humidity;BMP_temperature;BMP_pressure;BME280_temperature;BME280_humidity;BME280_pressure;Samples;Min_cycle;Max_cycle;Signal;HPM_P1;HPM_P2
2021/01/12 00:00:33;;;;;;;2.95;0.98;;;26.20;68.00;;;;;;5072296;28;20062;-67
2021/01/12 00:03:01;;;;;;;9.77;1.60;;;26.20;68.40;;;;;;5073409;28;20035;-66
2021/01/12 00:05:29;;;;;;;2.50;1.08;;;26.20;67.80;;;;;;5073166;28;20479;-68
2021/01/12 00:07:56;;;;;;;4.35;1.30;;;26.30;68.30;;;;;;5073000;28;20031;-62
2021/01/12 00:10:24;;;;;;;3.10;1.15;;;26.20;68.40;;;;;;5073310;28;20036;-68
2021/01/12 00:12:55;;;;;;;2.67;0.93;;;26.40;68.10;;;;;;5073100;28;20028;-68
2021/01/12 00:15:22;;;;;;;7.82;2.10;;;26.40;68.50;;;;;;5073526;28;20040;-66
2021/01/12 00:17:49;;;;;;;3.55;0.90;;;26.40;67.80;;;;;;5073134;28;20070;-68
2021/01/12 00:20:17;;;;;;;3.75;1.27;;;26.50;68.00;;;;;;5072841;28;20048;-67
2021/01/12 00:22:45;;;;;;;2.72;1.10;;;26.50;68.00;;;;;;5073228;28;20024;-63
2021/01/12 00:25:14;;;;;;;4.72;1.08;;;26.60;67.40;;;;;;5072885;28;20022;-66
2021/01/12 00:27:41;;;;;;;7.97;2.13;;;26.60;67.50;;;;;;5072853;28;20075;-64
2021/01/12 00:30:10;;;;;;;4.50;1.30;;;26.70;67.20;;;;;;5071668;28;20494;-65
2021/01/12 00:32:37;;;;;;;1.67;0.82;;;26.70;67.20;;;;;;5072779;28;20028;-68
2021/01/12 00:35:05;;;;;;;1.45;0.80;;;26.70;66.80;;;;;;5072886;28;20032;-69
2021/01/12 00:37:32;;;;;;;7.28;1.42;;;26.60;67.70;;;;;;5072479;28;20044;-66
2021/01/12 00:40:06;;;;;;;3.85;1.00;;;26.80;67.00;;;;;;5072560;28;20016;-67
2021/01/12 00:42:34;;;;;;;2.60;0.95;;;26.80;66.50;;;;;;5072788;28;20127;-65
2021/01/12 00:45:01;;;;;;;2.95;1.10;;;27.00;66.20;;;;;;5072077;28;20040;-65
2021/01/12 00:47:28;;;;;;;2.55;0.82;;;27.00;66.40;;;;;;5072355;28;20486;-68
2021/01/12 00:49:56;;;;;;;5.97;1.27;;;27.00;65.90;;;;;;5072616;28;20024;-66
2021/01/12 00:52:23;;;;;;;2.58;1.00;;;27.10;66.60;;;;;;5072186;28;20021;-64
2021/01/12 00:54:50;;;;;;;1.60;0.90;;;27.20;65.50;;;;;;5072313;28;20039;-67
2021/01/12 00:57:18;;;;;;;2.15;0.95;;;27.30;66.00;;;;;;5072386;28;20031;-63
2021/01/12 00:59:45;;;;;;;3.42;0.90;;;27.30;65.20;;;;;;5064364;28;20043;-66
2021/01/12 01:02:13;;;;;;;3.58;0.70;;;27.30;64.60;;;;;;5060683;28;20506;-62
2021/01/12 01:04:40;;;;;;;4.50;1.50;;;27.30;66.30;;;;;;5063057;28;20056;-55
2021/01/12 01:07:08;;;;;;;6.30;1.27;;;27.30;65.30;;;;;;5067160;28;20028;-57
2021/01/12 01:09:35;;;;;;;3.30;1.23;;;27.40;65.40;;;;;;5067329;28;20437;-59
2021/01/12 01:12:03;;;;;;;5.03;1.10;;;27.30;65.90;;;;;;5071002;28;20055;-60
2021/01/12 01:14:30;;;;;;;4.60;1.27;;;27.40;65.90;;;;;;5068476;28;20080;-59
2021/01/12 01:16:57;;;;;;;12.80;1.77;;;27.30;66.10;;;;;;5065733;28;20108;-62
2021/01/12 01:19:25;;;;;;;2.20;1.08;;;27.50;64.50;;;;;;5067701;28;20037;-55
2021/01/12 01:21:52;;;;;;;6.05;1.45;;;27.40;64.90;;;;;;5070586;28;20052;-59
2021/01/12 01:24:19;;;;;;;2.80;0.90;;;27.60;64.00;;;;;;5070915;28;20108;-65
2021/01/12 01:26:47;;;;;;;2.70;1.23;;;27.60;65.60;;;;;;5066580;28;20074;-64
2021/01/12 01:29:15;;;;;;;3.20;1.27;;;27.60;65.40;;;;;;5069106;28;20119;-56
2021/01/12 01:31:42;;;;;;;4.32;1.08;;;27.60;65.40;;;;;;5067501;28;20458;-62
2021/01/12 01:34:10;;;;;;;3.60;0.93;;;27.70;64.80;;;;;;5070410;28;20044;-62
2021/01/12 01:36:37;;;;;;;3.70;1.15;;;27.70;65.40;;;;;;5064584;28;20021;-62
2021/01/12 01:39:06;;;;;;;3.30;1.05;;;27.80;64.70;;;;;;5068998;28;20032;-61
2021/01/12 01:41:33;;;;;;;2.30;0.70;;;27.80;64.20;;;;;;5067943;28;20077;-65
2021/01/12 01:44:02;;;;;;;3.03;1.10;;;27.80;65.40;;;;;;5068861;28;20027;-54
2021/01/12 01:46:29;;;;;;;4.10;1.10;;;27.80;65.50;;;;;;5061940;28;20034;-62
2021/01/12 01:48:57;;;;;;;4.38;1.05;;;27.90;65.30;;;;;;5067988;28;20079;-62
2021/01/12 01:51:25;;;;;;;2.67;0.80;;;28.00;64.80;;;;;;5068631;28;20402;-54
2021/01/12 01:53:53;;;;;;;3.15;1.23;;;28.00;64.10;;;;;;5070873;28;20048;-61
2021/01/12 01:56:25;;;;;;;5.75;1.15;;;28.10;64.50;;;;;;5063770;28;20025;-60
2021/01/12 01:58:52;;;;;;;4.47;0.80;;;28.10;63.90;;;;;;5070519;28;20028;-61
2021/01/12 02:01:20;;;;;;;1.88;1.33;;;28.10;64.20;;;;;;5069548;28;20395;-63
2021/01/12 02:03:56;;;;;;;2.65;1.13;;;28.10;64.40;;;;;;5069969;28;20037;-63
2021/01/12 02:06:32;;;;;;;5.88;1.92;;;28.10;63.90;;;;;;5064242;28;20074;-59
2021/01/12 02:09:05;;;;;;;2.45;0.98;;;28.10;64.20;;;;;;5069316;28;20036;-58
2021/01/12 02:11:42;;;;;;;4.57;1.33;;;28.10;64.90;;;;;;5069363;28;20130;-62
2021/01/12 02:14:18;;;;;;;5.68;1.60;;;28.10;64.70;;;;;;5068574;28;20098;-62
2021/01/12 02:16:50;;;;;;;7.22;1.23;;;28.10;64.70;;;;;;5065010;28;20020;-62
2021/01/12 02:19:22;;;;;;;3.95;1.38;;;28.00;65.40;;;;;;5069955;28;20039;-61
2021/01/12 02:21:53;;;;;;;2.90;1.15;;;28.00;65.40;;;;;;5069667;28;20649;-64
2021/01/12 02:24:21;;;;;;;3.15;0.90;;;28.10;64.90;;;;;;5069643;28;20052;-59
2021/01/12 02:26:49;;;;;;;5.28;1.35;;;28.10;65.30;;;;;;5064952;28;20498;-62
2021/01/12 02:29:16;;;;;;;8.98;1.40;;;28.00;65.40;;;;;;5070172;28;20464;-59
2021/01/12 02:31:44;;;;;;;2.60;1.00;;;28.10;65.00;;;;;;5072723;28;20028;-59
2021/01/12 02:34:17;;;;;;;4.88;1.20;;;28.10;65.30;;;;;;5073262;28;20135;-63
2021/01/12 02:36:49;;;;;;;2.63;1.05;;;28.10;65.30;;;;;;5065755;28;20462;-58
2021/01/12 02:39:16;;;;;;;2.67;1.00;;;28.00;65.40;;;;;;5073594;28;20035;-64
2021/01/12 02:41:44;;;;;;;9.65;1.40;;;28.00;65.60;;;;;;5073198;28;20435;-68
2021/01/12 02:44:29;;;;;;;6.72;1.48;;;28.00;65.60;;;;;;5073068;28;20038;-64
2021/01/12 02:46:56;;;;;;;4.70;1.13;;;28.00;65.70;;;;;;5067215;28;20048;-62
2021/01/12 02:49:24;;;;;;;5.13;1.60;;;28.00;65.90;;;;;;5073692;28;20059;-62
2021/01/12 02:51:51;;;;;;;3.80;1.48;;;27.90;66.10;;;;;;5073235;28;20020;-62
2021/01/12 02:54:18;;;;;;;4.72;1.25;;;27.90;66.10;;;;;;5072616;28;20135;-63
2021/01/12 02:56:46;;;;;;;8.02;1.42;;;27.90;66.20;;;;;;5066436;28;20048;-63
2021/01/12 02:59:13;;;;;;;7.13;1.77;;;27.90;66.30;;;;;;5071991;28;20044;-64
2021/01/12 03:01:41;;;;;;;2.83;0.95;;;27.90;66.30;;;;;;5071192;28;20048;-57
2021/01/12 03:04:08;;;;;;;6.60;1.30;;;27.90;66.40;;;;;;5073071;28;20027;-57
2021/01/12 03:06:35;;;;;;;6.63;1.38;;;27.90;66.50;;;;;;5068716;28;20568;-56
2021/01/12 03:09:03;;;;;;;6.40;1.33;;;27.90;66.50;;;;;;5073646;28;20025;-60
2021/01/12 03:11:31;;;;;;;4.88;1.08;;;28.00;66.60;;;;;;5072843;28;20435;-62
2021/01/12 03:13:59;;;;;;;6.45;1.55;;;27.90;66.20;;;;;;5072488;28;20540;-59
2021/01/12 03:16:26;;;;;;;8.55;1.25;;;27.90;66.10;;;;;;5067781;28;20494;-65
2021/01/12 03:18:54;;;;;;;5.13;1.20;;;28.00;66.20;;;;;;5072660;28;20036;-59
2021/01/12 03:21:21;;;;;;;7.60;1.55;;;27.90;66.50;;;;;;5072902;28;20044;-57
2021/01/12 03:23:48;;;;;;;4.65;1.48;;;27.90;67.10;;;;;;5073070;28;20374;-62
2021/01/12 03:26:21;;;;;;;4.28;1.65;;;27.90;66.30;;;;;;5066397;28;20024;-54
2021/01/12 03:28:48;;;;;;;4.97;1.30;;;27.90;66.40;;;;;;5072842;28;20475;-63
2021/01/12 03:31:16;;;;;;;5.85;1.15;;;28.00;66.30;;;;;;5072769;28;20021;-63
2021/01/12 03:33:43;;;;;;;6.93;1.55;;;27.90;66.60;;;;;;5072719;28;20036;-61
2021/01/12 03:36:11;;;;;;;5.47;1.30;;;27.90;66.70;;;;;;5066333;28;20107;-51
2021/01/12 03:38:38;;;;;;;3.58;1.13;;;28.00;66.40;;;;;;5072623;28;20028;-58
2021/01/12 03:41:06;;;;;;;4.05;1.38;;;28.00;66.80;;;;;;5072213;28;20027;-56
2021/01/12 03:43:33;;;;;;;5.57;1.40;;;28.00;66.20;;;;;;5070276;28;20553;-64
2021/01/12 03:46:01;;;;;;;4.30;1.38;;;28.10;66.10;;;;;;5065977;28;20028;-57
2021/01/12 03:48:28;;;;;;;3.63;1.23;;;28.20;65.70;;;;;;5072944;28;20368;-57
2021/01/12 03:50:55;;;;;;;4.70;1.23;;;28.20;66.10;;;;;;5069940;28;20036;-55
2021/01/12 03:53:23;;;;;;;4.78;1.33;;;28.20;65.40;;;;;;5072147;28;20025;-66
2021/01/12 03:55:50;;;;;;;2.85;1.08;;;28.30;65.40;;;;;;5066172;28;20033;-62
2021/01/12 03:58:18;;;;;;;3.30;1.23;;;28.20;65.60;;;;;;5072052;28;20033;-62
2021/01/12 04:00:45;;;;;;;4.35;1.45;;;28.30;65.70;;;;;;5070348;28;20127;-63
2021/01/12 04:03:13;;;;;;;5.63;1.45;;;28.20;65.40;;;;;;5072362;28;20076;-62
2021/01/12 04:05:40;;;;;;;5.65;1.50;;;28.30;65.20;;;;;;5064774;28;20479;-63
2021/01/12 04:08:10;;;;;;;4.30;1.25;;;28.20;65.80;;;;;;5070447;28;20049;-69
2021/01/12 04:10:38;;;;;;;4.38;1.30;;;28.30;66.30;;;;;;5072301;28;20094;-66
2021/01/12 04:13:05;;;;;;;7.15;1.63;;;28.10;66.40;;;;;;5071740;28;20044;-63
2021/01/12 04:15:33;;;;;;;2.50;1.23;;;28.20;66.10;;;;;;5066759;28;20051;-64
2021/01/12 04:18:00;;;;;;;3.30;1.30;;;28.20;65.70;;;;;;5070806;28;20024;-58
2021/01/12 04:20:28;;;;;;;3.28;1.23;;;28.30;66.10;;;;;;5071768;28;20379;-56
2021/01/12 04:22:55;;;;;;;9.35;1.77;;;28.30;65.50;;;;;;5071526;28;20033;-54
2021/01/12 04:25:23;;;;;;;3.00;1.10;;;28.30;65.70;;;;;;5069021;28;20051;-69
2021/01/12 04:27:50;;;;;;;4.13;1.35;;;28.30;66.30;;;;;;5068793;28;20429;-62
2021/01/12 04:30:18;;;;;;;3.00;0.95;;;28.30;66.20;;;;;;5070178;28;20091;-62
2021/01/12 04:32:45;;;;;;;4.68;1.45;;;28.30;65.90;;;;;;5071286;28;20050;-66
2021/01/12 04:35:12;;;;;;;9.90;1.92;;;28.30;65.80;;;;;;5070702;28;20041;-68
2021/01/12 04:37:40;;;;;;;4.40;1.25;;;28.40;65.50;;;;;;5066175;28;20479;-65
2021/01/12 04:40:08;;;;;;;6.45;1.77;;;28.40;65.60;;;;;;5072705;28;20032;-61
2021/01/12 04:42:35;;;;;;;4.35;1.35;;;28.40;65.60;;;;;;5070513;28;20095;-68
2021/01/12 04:45:05;;;;;;;2.95;1.30;;;28.40;65.80;;;;;;5071856;28;20386;-68
2021/01/12 04:47:33;;;;;;;4.47;1.17;;;28.40;65.60;;;;;;5072328;28;20050;-65
2021/01/12 04:50:07;;;;;;;3.83;1.30;;;28.30;65.60;;;;;;5073052;28;20095;-65
2021/01/12 04:52:48;;;;;;;3.97;1.23;;;28.30;65.30;;;;;;5072428;28;20020;-65
2021/01/12 04:55:17;;;;;;;2.28;1.13;;;28.30;65.70;;;;;;5071881;28;20408;-65
2021/01/12 04:57:45;;;;;;;3.63;1.17;;;28.20;65.50;;;;;;5070075;28;20031;-71
2021/01/12 05:00:18;;;;;;;4.97;1.30;;;28.10;65.60;;;;;;5072593;28;20068;-65
2021/01/12 05:03:04;;;;;;;4.88;1.70;;;28.10;66.40;;;;;;5072812;28;20016;-66
2021/01/12 05:05:37;;;;;;;5.20;1.42;;;28.00;65.90;;;;;;5071205;28;20027;-67
2021/01/12 05:08:06;;;;;;;5.40;1.75;;;28.00;66.30;;;;;;5072263;28;20025;-69
2021/01/12 05:10:40;;;;;;;6.28;1.40;;;27.90;66.20;;;;;;5071812;28;20064;-64
2021/01/12 05:13:13;;;;;;;5.03;1.40;;;28.00;67.20;;;;;;5071993;28;20044;-69
2021/01/12 05:15:41;;;;;;;4.03;1.30;;;28.00;66.40;;;;;;5072037;28;20031;-66
2021/01/12 05:18:11;;;;;;;2.88;1.10;;;27.90;66.60;;;;;;5072107;28;20020;-69
2021/01/12 05:20:48;;;;;;;4.28;1.40;;;27.90;67.30;;;;;;5071696;28;20495;-68
2021/01/12 05:23:24;;;;;;;4.82;1.17;;;27.90;66.70;;;;;;5072138;28;20056;-67
2021/01/12 05:25:54;;;;;;;5.00;1.55;;;27.90;66.40;;;;;;5072129;28;20095;-66
2021/01/12 05:28:21;;;;;;;4.00;1.35;;;27.90;66.70;;;;;;5071638;28;20024;-67
2021/01/12 05:30:49;;;;;;;2.63;1.17;;;27.90;66.30;;;;;;5070675;28;20120;-63
2021/01/12 05:33:20;;;;;;;4.50;1.92;;;27.80;66.80;;;;;;5070800;28;20302;-68
2021/01/12 05:35:49;;;;;;;3.85;1.58;;;27.80;67.00;;;;;;5071883;28;20024;-65
2021/01/12 05:38:28;;;;;;;8.85;1.88;;;27.80;66.50;;;;;;5071700;28;20050;-66
2021/01/12 05:40:58;;;;;;;4.15;1.40;;;27.80;66.20;;;;;;5071881;28;20042;-67
2021/01/12 05:43:37;;;;;;;3.10;1.00;;;27.70;66.60;;;;;;5071161;28;20062;-67
2021/01/12 05:46:17;;;;;;;10.15;1.67;;;27.70;66.60;;;;;;5071615;28;20103;-63
2021/01/12 05:48:46;;;;;;;2.85;1.00;;;27.70;66.60;;;;;;5071868;28;20021;-67
2021/01/12 05:51:15;;;;;;;6.90;1.42;;;27.70;66.70;;;;;;5071768;28;20028;-70
2021/01/12 05:53:49;;;;;;;4.85;1.35;;;27.70;67.20;;;;;;5071284;28;20029;-70
2021/01/12 05:56:27;;;;;;;6.03;1.50;;;27.70;66.10;;;;;;5062930;28;20028;-61
2021/01/12 05:58:57;;;;;;;4.85;1.48;;;27.70;66.60;;;;;;5068559;28;20074;-64
2021/01/12 06:01:47;;;;;;;29.80;19.63;;;27.80;65.90;;;;;;5067454;28;20021;-57
2021/01/12 06:04:16;;;;;;;7.97;6.15;;;27.80;66.60;;;;;;5067324;28;20391;-54
2021/01/12 06:06:45;;;;;;;7.38;5.38;;;27.70;67.50;;;;;;5071769;28;20377;-55
2021/01/12 06:09:15;;;;;;;7.20;4.72;;;27.70;67.00;;;;;;5073587;28;20020;-57
2021/01/12 06:11:45;;;;;;;10.55;4.60;;;27.70;66.90;;;;;;5073540;28;20035;-63
2021/01/12 06:14:14;;;;;;;9.10;5.25;;;27.70;66.10;;;;;;5071171;28;20040;-57
2021/01/12 06:16:45;;;;;;;10.07;5.75;;;27.70;67.60;;;;;;5072242;28;20458;-66
2021/01/12 06:19:19;;;;;;;6.35;4.50;;;27.70;67.60;;;;;;5073430;28;20059;-63
2021/01/12 06:21:55;;;;;;;10.60;6.13;;;27.80;66.90;;;;;;5072913;28;20059;-64
2021/01/12 06:24:31;;;;;;;12.63;6.32;;;27.70;67.60;;;;;;5070141;28;20132;-63
2021/01/12 06:26:59;;;;;;;7.65;5.20;;;27.60;67.80;;;;;;5072540;28;20651;-62
2021/01/12 06:29:33;;;;;;;10.38;5.38;;;27.60;67.40;;;;;;5073483;28;20036;-64
2021/01/12 06:32:00;;;;;;;6.43;4.68;;;27.70;67.00;;;;;;5073670;28;20017;-63
2021/01/12 06:34:29;;;;;;;7.20;4.95;;;27.60;66.70;;;;;;5068488;28;20038;-62
2021/01/12 06:36:58;;;;;;;9.50;4.38;;;27.70;67.00;;;;;;5072095;28;20037;-63
2021/01/12 06:39:39;;;;;;;10.20;4.75;;;27.80;66.50;;;;;;5072537;28;20122;-65
2021/01/12 06:42:07;;;;;;;8.30;4.05;;;27.80;66.60;;;;;;5073592;28;20020;-64
2021/01/12 06:44:36;;;;;;;5.78;4.53;;;27.80;66.20;;;;;;5067610;28;20024;-65
2021/01/12 06:47:06;;;;;;;7.85;5.63;;;27.80;66.80;;;;;;5070585;28;20025;-63
2021/01/12 06:49:34;;;;;;;9.32;6.57;;;27.90;66.00;;;;;;5073186;28;20020;-58
2021/01/12 06:52:17;;;;;;;8.30;5.47;;;27.90;66.70;;;;;;5072727;28;20034;-62
2021/01/12 06:54:49;;;;;;;12.82;5.30;;;27.80;66.10;;;;;;5065451;28;20063;-61
2021/01/12 06:57:22;;;;;;;9.43;5.10;;;27.80;67.20;;;;;;5071768;28;20024;-62
2021/01/12 06:59:56;;;;;;;8.48;4.80;;;27.70;66.30;;;;;;5072939;28;20029;-61
2021/01/12 07:02:28;;;;;;;8.27;4.95;;;27.70;67.30;;;;;;5073114;28;20020;-57
2021/01/12 07:05:16;;;;;;;7.20;4.57;;;27.80;67.60;;;;;;5067566;28;20029;-58
2021/01/12 07:07:48;;;;;;;6.38;4.68;;;27.70;67.60;;;;;;5071744;28;20020;-58
2021/01/12 07:10:17;;;;;;;11.27;4.57;;;27.70;67.10;;;;;;5072851;28;20048;-61
2021/01/12 07:12:46;;;;;;;8.45;3.63;;;27.70;67.10;;;;;;5072756;28;20451;-62
2021/01/12 07:15:21;;;;;;;5.80;3.80;;;27.70;66.00;;;;;;5069425;28;20032;-61
2021/01/12 07:17:53;;;;;;;7.20;4.07;;;27.60;68.10;;;;;;5069280;28;20049;-63
2021/01/12 07:20:26;;;;;;;7.07;3.90;;;27.60;67.50;;;;;;5070867;28;20101;-62
2021/01/12 07:23:23;;;;;;;5.90;3.95;;;27.60;67.80;;;;;;5072728;28;20024;-58
2021/01/12 07:25:53;;;;;;;7.78;3.42;;;27.60;67.60;;;;;;5059200;28;20103;-58
2021/01/12 07:28:22;;;;;;;7.32;3.53;;;27.50;67.40;;;;;;5071246;28;20047;-64
2021/01/12 07:30:56;;;;;;;7.82;3.42;;;27.50;67.60;;;;;;5073101;28;20647;-63
2021/01/12 07:33:26;;;;;;;8.10;3.78;;;27.40;67.90;;;;;;5071410;28;20040;-59
2021/01/12 07:35:55;;;;;;;7.63;3.88;;;27.40;68.30;;;;;;5067206;28;20021;-66
2021/01/12 07:38:27;;;;;;;7.07;3.58;;;27.40;68.40;;;;;;5069982;28;20052;-63
2021/01/12 07:40:58;;;;;;;6.85;3.00;;;27.40;67.20;;;;;;5072462;28;20032;-58
2021/01/12 07:43:27;;;;;;;3.97;2.93;;;27.40;68.20;;;;;;5072024;28;20024;-58
2021/01/12 07:45:56;;;;;;;8.68;3.60;;;27.30;67.10;;;;;;5067314;28;20020;-60
2021/01/12 07:48:24;;;;;;;5.05;2.60;;;27.30;68.40;;;;;;5071010;28;20116;-69
2021/01/12 07:50:53;;;;;;;6.10;3.13;;;27.30;68.50;;;;;;5073166;28;20027;-68
2021/01/12 07:53:21;;;;;;;5.78;3.00;;;27.30;67.00;;;;;;5071540;28;20033;-64
2021/01/12 07:55:49;;;;;;;6.80;3.10;;;27.30;67.50;;;;;;5067117;28;20020;-67
2021/01/12 07:58:18;;;;;;;5.07;2.60;;;27.20;68.30;;;;;;5071083;28;20051;-65
2021/01/12 08:00:50;;;;;;;8.52;3.13;;;27.20;68.20;;;;;;5072142;28;20024;-67
2021/01/12 08:03:17;;;;;;;;;;;27.20;67.90;;;;;;5072508;28;20055;-63
2021/01/12 08:05:45;;;;;;;6.28;3.00;;;27.20;68.80;;;;;;5066319;28;19904;-61
2021/01/12 08:08:12;;;;;;;5.05;2.88;;;27.10;68.90;;;;;;5070970;28;20060;-63
2021/01/12 08:10:42;;;;;;;4.72;2.70;;;27.00;68.50;;;;;;5071573;28;20025;-54
2021/01/12 08:13:14;;;;;;;5.25;2.50;;;27.10;68.40;;;;;;5071815;28;20039;-62
2021/01/12 08:15:44;;;;;;;4.80;2.38;;;27.00;69.00;;;;;;5065287;28;20017;-63
2021/01/12 08:18:14;;;;;;;6.32;2.78;;;27.00;67.70;;;;;;5070768;28;20048;-65
2021/01/12 08:20:43;;;;;;;4.10;2.20;;;27.00;69.10;;;;;;5071009;28;20430;-66
2021/01/12 08:23:18;;;;;;;7.03;2.63;;;26.90;68.60;;;;;;5071521;28;20047;-61
2021/01/12 08:25:46;;;;;;;7.32;2.65;;;26.90;69.00;;;;;;5066025;28;20036;-61
2021/01/12 08:28:14;;;;;;;4.60;2.28;;;26.90;68.90;;;;;;5069748;28;20039;-60
2021/01/12 08:30:42;;;;;;;4.75;2.35;;;26.90;68.70;;;;;;5070997;28;20451;-61
2021/01/12 08:33:25;;;;;;;6.65;2.28;;;26.90;68.50;;;;;;5071423;28;20073;-61
2021/01/12 08:35:57;;;;;;;5.80;2.70;;;26.80;68.90;;;;;;5065141;28;20090;-62
2021/01/12 08:38:27;;;;;;;10.75;3.17;;;26.80;69.40;;;;;;5070662;28;20078;-64
2021/01/12 08:40:56;;;;;;;7.93;2.60;;;26.80;69.10;;;;;;5070918;28;20028;-61
2021/01/12 08:43:30;;;;;;;7.88;2.67;;;26.80;69.90;;;;;;5068065;28;20090;-61
2021/01/12 08:46:07;;;;;;;6.30;2.28;;;26.70;70.00;;;;;;5066341;28;20024;-60
2021/01/12 08:48:36;;;;;;;4.20;1.83;;;26.70;70.70;;;;;;5069267;28;20530;-62
2021/01/12 08:51:19;;;;;;;10.50;2.70;;;26.60;70.60;;;;;;5068183;28;20593;-66
2021/01/12 08:53:58;;;;;;;7.82;2.42;;;26.60;71.80;;;;;;5064814;28;20044;-62
2021/01/12 08:56:25;;;;;;;10.20;2.75;;;26.60;71.90;;;;;;5069870;28;20075;-63
2021/01/12 08:59:13;;;;;;;5.70;2.20;;;26.60;71.70;;;;;;5067731;28;20020;-67
2021/01/12 09:01:42;;;;;;;4.63;1.92;;;26.60;72.10;;;;;;5067679;28;20028;-62
2021/01/12 09:04:10;;;;;;;6.07;2.42;;;26.50;72.00;;;;;;5063054;28;20032;-55
2021/01/12 09:06:38;;;;;;;6.25;2.50;;;26.50;72.60;;;;;;5070961;28;20028;-61
2021/01/12 09:09:13;;;;;;;5.90;2.20;;;26.50;72.50;;;;;;5068076;28;20028;-63
2021/01/12 09:11:44;;;;;;;5.20;2.15;;;26.50;72.80;;;;;;5067561;28;20079;-70
2021/01/12 09:14:12;;;;;;;4.70;1.80;;;26.50;72.90;;;;;;5065377;28;20579;-66
2021/01/12 09:16:44;;;;;;;7.95;2.00;;;26.50;73.10;;;;;;5070596;28;20028;-55
2021/01/12 09:19:15;;;;;;;6.93;2.20;;;26.50;73.50;;;;;;5070155;28;20028;-58
2021/01/12 09:21:46;;;;;;;;;;;26.50;73.20;;;;;;5070386;28;20292;-62
2021/01/12 09:24:19;;;;;;;6.43;2.30;;;26.50;73.30;;;;;;5065289;28;19909;-54
2021/01/12 09:26:47;;;;;;;6.68;1.85;;;26.40;73.60;;;;;;5070222;28;20031;-59
2021/01/12 09:29:14;;;;;;;8.77;3.03;;;26.40;73.50;;;;;;5069611;28;20082;-59
2021/01/12 09:31:47;;;;;;;6.45;2.28;;;26.30;73.60;;;;;;5070055;28;20430;-62
2021/01/12 09:34:22;;;;;;;7.45;2.17;;;26.30;73.90;;;;;;5063685;28;20043;-62
2021/01/12 09:36:50;;;;;;;5.75;1.77;;;26.20;74.10;;;;;;5070518;28;20103;-56
2021/01/12 09:39:17;;;;;;;7.28;2.33;;;26.20;74.10;;;;;;5069387;28;20029;-66
2021/01/12 09:41:45;;;;;;;5.28;1.70;;;26.20;74.40;;;;;;5069231;28;20085;-66
2021/01/12 09:44:12;;;;;;;10.73;2.45;;;26.20;74.40;;;;;;5064750;28;20113;-61
2021/01/12 09:46:39;;;;;;;7.07;2.80;;;26.20;74.50;;;;;;5070581;28;20358;-62
2021/01/12 09:49:07;;;;;;;4.20;2.05;;;26.20;74.70;;;;;;5069888;28;20033;-61
2021/01/12 09:51:34;;;;;;;5.65;1.65;;;26.10;74.60;;;;;;5065999;28;20017;-58
2021/01/12 09:54:01;;;;;;;6.32;2.20;;;26.10;74.60;;;;;;5063338;28;20040;-66
2021/01/12 09:56:29;;;;;;;5.95;2.08;;;26.10;74.70;;;;;;5069143;28;20108;-68
2021/01/12 09:58:56;;;;;;;10.73;2.58;;;26.10;74.80;;;;;;5068542;28;20475;-64
2021/01/12 10:01:23;;;;;;;7.78;2.30;;;26.10;74.90;;;;;;5068961;28;20028;-65
2021/01/12 10:03:53;;;;;;;5.20;2.13;;;26.10;74.80;;;;;;5065781;28;20703;-60
2021/01/12 10:06:27;;;;;;;7.40;1.90;;;26.00;74.90;;;;;;5067426;28;20447;-64
2021/01/12 10:08:55;;;;;;;5.07;2.05;;;26.00;74.90;;;;;;5067772;28;20040;-62
2021/01/12 10:11:23;;;;;;;7.15;2.45;;;26.00;74.80;;;;;;5070021;28;20023;-64
2021/01/12 10:13:50;;;;;;;5.05;1.83;;;26.00;75.10;;;;;;5067072;28;20045;-63
2021/01/12 10:16:25;;;;;;;8.82;2.60;;;26.00;75.10;;;;;;5067469;28;20036;-62
2021/01/12 10:18:53;;;;;;;7.30;1.92;;;26.00;75.20;;;;;;5069273;28;20028;-54
2021/01/12 10:21:21;;;;;;;6.03;2.08;;;25.90;75.20;;;;;;5068628;28;20094;-60
2021/01/12 10:23:48;;;;;;;5.32;1.77;;;25.90;75.40;;;;;;5066475;28;20031;-66
2021/01/12 10:26:18;;;;;;;9.13;2.47;;;25.90;75.40;;;;;;5067197;28;20056;-65
2021/01/12 10:28:47;;;;;;;6.07;1.67;;;25.90;75.50;;;;;;5068562;28;20029;-63
2021/01/12 10:31:17;;;;;;;9.02;2.20;;;25.90;75.50;;;;;;5067710;28;20031;-61
2021/01/12 10:33:45;;;;;;;7.25;1.92;;;25.90;75.60;;;;;;5065534;28;20021;-60
2021/01/12 10:36:16;;;;;;;13.00;2.67;;;25.80;75.60;;;;;;5067398;28;20031;-61
2021/01/12 10:38:44;;;;;;;7.65;2.00;;;25.80;76.00;;;;;;5066711;28;20134;-64
2021/01/12 10:41:12;;;;;;;6.10;1.90;;;25.80;75.90;;;;;;5069440;28;20024;-55
2021/01/12 10:43:41;;;;;;;7.18;2.50;;;25.80;75.80;;;;;;5067149;28;20103;-56
2021/01/12 10:46:09;;;;;;;9.55;2.33;;;25.80;75.80;;;;;;5066447;28;20095;-58
2021/01/12 10:48:36;;;;;;;7.35;2.00;;;25.80;76.10;;;;;;5069067;28;20186;-52
2021/01/12 10:51:04;;;;;;;6.22;1.90;;;25.80;76.10;;;;;;5070249;28;20024;-54
2021/01/12 10:53:31;;;;;;;6.82;2.22;;;25.70;76.00;;;;;;5072640;28;20039;-61
2021/01/12 10:56:01;;;;;;;6.93;2.15;;;25.70;76.10;;;;;;5069063;28;20487;-57
2021/01/12 10:58:29;;;;;;;6.63;1.83;;;25.70;76.10;;;;;;5072836;28;20040;-60
2021/01/12 11:00:57;;;;;;;7.00;2.33;;;25.70;75.90;;;;;;5072114;28;20033;-60
2021/01/12 11:03:25;;;;;;;5.57;1.98;;;25.70;75.90;;;;;;5073668;28;20043;-60
2021/01/12 11:05:55;;;;;;;13.73;2.35;;;25.70;76.20;;;;;;5067614;28;20036;-61
2021/01/12 11:08:25;;;;;;;5.40;1.65;;;25.70;76.20;;;;;;5072864;28;20031;-62
2021/01/12 11:10:53;;;;;;;4.75;1.75;;;25.70;76.30;;;;;;5072398;28;20024;-63
2021/01/12 11:13:21;;;;;;;9.05;2.35;;;25.70;76.30;;;;;;5073056;28;20481;-62
2021/01/12 11:15:48;;;;;;;8.02;2.35;;;25.70;77.00;;;;;;5067538;28;20044;-63
2021/01/12 11:18:16;;;;;;;5.93;2.30;;;25.70;76.60;;;;;;5072749;28;20039;-63
2021/01/12 11:20:44;;;;;;;6.78;2.03;;;25.70;76.60;;;;;;5071527;28;20047;-64
2021/01/12 11:23:12;;;;;;;6.63;2.70;;;25.70;76.80;;;;;;5073041;28;20033;-68
2021/01/12 11:25:40;;;;;;;8.07;2.35;;;25.70;76.60;;;;;;5066861;28;20100;-61
2021/01/12 11:28:07;;;;;;;7.38;1.80;;;25.70;76.90;;;;;;5071965;28;20036;-62
2021/01/12 11:30:35;;;;;;;4.57;1.33;;;25.60;77.30;;;;;;5073051;28;20031;-59
2021/01/12 11:33:06;;;;;;;6.75;1.95;;;25.60;76.70;;;;;;5072957;28;20033;-64
2021/01/12 11:35:34;;;;;;;12.35;2.60;;;25.60;76.80;;;;;;5063883;28;20039;-60
2021/01/12 11:38:02;;;;;;;9.32;1.95;;;25.60;76.90;;;;;;5071947;28;20047;-65
2021/01/12 11:40:29;;;;;;;5.78;2.17;;;25.60;77.40;;;;;;5072857;28;20060;-61
2021/01/12 11:42:58;;;;;;;6.18;2.03;;;25.60;76.60;;;;;;5072594;28;20024;-57
2021/01/12 11:45:25;;;;;;;7.40;2.33;;;25.60;76.80;;;;;;5065613;28;20040;-60
2021/01/12 11:47:53;;;;;;;6.40;2.72;;;25.60;76.90;;;;;;5071913;28;21158;-60
2021/01/12 11:50:20;;;;;;;6.90;2.03;;;25.60;76.90;;;;;;5071126;28;20449;-60
2021/01/12 11:52:48;;;;;;;5.80;1.98;;;25.60;77.00;;;;;;5072521;28;20025;-64
2021/01/12 11:55:15;;;;;;;8.43;2.35;;;25.60;77.10;;;;;;5067365;28;20082;-65
2021/01/12 11:57:42;;;;;;;5.97;1.90;;;25.60;76.80;;;;;;5071607;28;20029;-64
2021/01/12 12:00:10;;;;;;;8.65;1.83;;;25.60;76.80;;;;;;5071983;28;20020;-56
2021/01/12 12:02:37;;;;;;;4.22;1.55;;;25.50;76.90;;;;;;5072368;28;20475;-63
2021/01/12 12:05:05;;;;;;;5.90;1.30;;;25.60;77.10;;;;;;5063263;28;20115;-60
2021/01/12 12:07:33;;;;;;;6.68;1.58;;;25.50;76.90;;;;;;5071740;28;20030;-63
2021/01/12 12:10:01;;;;;;;5.65;2.17;;;25.60;77.00;;;;;;5071879;28;21738;-64
2021/01/12 12:12:28;;;;;;;5.70;2.05;;;25.60;77.20;;;;;;5072394;28;20170;-62
2021/01/12 12:14:56;;;;;;;8.60;2.15;;;25.50;76.90;;;;;;5066735;28;20036;-61
2021/01/12 12:17:23;;;;;;;10.82;2.97;;;25.50;77.50;;;;;;5071680;28;20456;-61
2021/01/12 12:19:51;;;;;;;5.88;1.90;;;25.50;77.10;;;;;;5071419;28;20031;-63
2021/01/12 12:22:18;;;;;;;6.57;1.77;;;25.50;77.30;;;;;;5071829;28;20044;-58
2021/01/12 12:24:45;;;;;;;4.97;1.98;;;25.50;77.00;;;;;;5066501;28;20475;-58
2021/01/12 12:27:20;;;;;;;6.05;2.00;;;25.50;77.20;;;;;;5072198;28;20028;-62
2021/01/12 12:29:48;;;;;;;4.63;1.67;;;25.50;77.40;;;;;;5071559;28;20101;-62
2021/01/12 12:32:15;;;;;;;7.18;1.85;;;25.40;77.20;;;;;;5072118;28;20036;-66
2021/01/12 12:34:43;;;;;;;4.55;1.45;;;25.40;77.40;;;;;;5063573;28;20475;-57
2021/01/12 12:37:10;;;;;;;6.38;2.08;;;25.40;77.40;;;;;;5071485;28;20455;-61
2021/01/12 12:39:38;;;;;;;8.52;2.05;;;25.40;77.30;;;;;;5071008;28;20024;-68
2021/01/12 12:42:06;;;;;;;7.93;2.20;;;25.40;77.60;;;;;;5070625;28;20479;-64
2021/01/12 12:44:34;;;;;;;6.90;1.95;;;25.40;77.50;;;;;;5064959;28;20834;-63
2021/01/12 12:47:02;;;;;;;8.30;2.20;;;25.40;77.50;;;;;;5071036;28;20031;-62
2021/01/12 12:49:29;;;;;;;5.88;1.83;;;25.40;77.50;;;;;;5070772;28;20132;-65
2021/01/12 12:52:00;;;;;;;4.75;1.60;;;25.40;77.60;;;;;;5071302;28;20024;-51
2021/01/12 12:54:28;;;;;;;5.18;1.50;;;25.40;77.60;;;;;;5065817;28;20446;-52
2021/01/12 12:56:56;;;;;;;6.05;1.90;;;25.40;77.50;;;;;;5071225;28;20510;-60